createdAt,value
2023-02-26T00:01:57.174Z,0
2023-02-26T00:04:23.241Z,0
2023-02-26T00:06:49.364Z,0
2023-02-26T00:09:15.314Z,0
2023-02-26T00:11:41.399Z,0
2023-02-26T00:14:07.510Z,0
2023-02-26T00:16:32.706Z,0
2023-02-26T00:18:58.777Z,0
2023-02-26T00:21:24.980Z,0
2023-02-26T00:23:50.963Z,0
2023-02-26T00:26:17.069Z,0
2023-02-26T00:28:43.128Z,0
2023-02-26T00:31:09.277Z,0
2023-02-26T00:33:35.424Z,0
2023-02-26T00:36:01.549Z,0
2023-02-26T00:38:27.589Z,0
2023-02-26T00:40:53.701Z,0
2023-02-26T00:43:19.850Z,0
2023-02-26T00:45:45.810Z,0
2023-02-26T00:48:10.952Z,0
2023-02-26T00:50:37.190Z,0
2023-02-26T00:53:03.304Z,0
2023-02-26T00:55:29.294Z,0
2023-02-26T00:57:55.438Z,0
2023-02-26T01:00:21.579Z,0
2023-02-26T01:02:47.676Z,0
2023-02-26T01:05:13.585Z,0
2023-02-26T01:07:39.843Z,0
2023-02-26T01:10:05.904Z,0
2023-02-26T01:12:31.878Z,0
2023-02-26T01:14:58.176Z,0
2023-02-26T01:17:24.067Z,0
2023-02-26T01:19:49.304Z,0
2023-02-26T01:22:15.437Z,0
2023-02-26T01:24:41.512Z,0
2023-02-26T01:27:07.651Z,0
2023-02-26T01:29:33.768Z,0
2023-02-26T01:31:59.732Z,0
2023-02-26T01:34:25.939Z,0
2023-02-26T01:36:51.969Z,0
2023-02-26T01:39:18.148Z,0
2023-02-26T01:41:44.169Z,0
2023-02-26T01:44:10.233Z,0
2023-02-26T01:46:36.261Z,0
2023-02-26T01:49:02.568Z,0
2023-02-26T01:51:27.631Z,0
2023-02-26T01:53:53.575Z,0
2023-02-26T01:56:19.918Z,0
2023-02-26T01:58:45.938Z,0
2023-02-26T02:01:11.915Z,0
2023-02-26T02:03:37.978Z,0
2023-02-26T02:06:04.155Z,0
2023-02-26T02:08:30.354Z,0
2023-02-26T02:10:56.428Z,0
2023-02-26T02:13:22.590Z,0
2023-02-26T02:15:48.498Z,0
2023-02-26T02:18:14.528Z,0
2023-02-26T02:20:40.679Z,0
2023-02-26T02:23:05.816Z,0
2023-02-26T02:25:31.859Z,0
2023-02-26T02:27:58.062Z,0
2023-02-26T02:30:24.165Z,0
2023-02-26T02:32:50.276Z,0
2023-02-26T02:35:16.318Z,0
2023-02-26T02:37:42.497Z,0
2023-02-26T02:40:08.614Z,0
2023-02-26T02:42:34.512Z,0
2023-02-26T02:45:00.615Z,0
2023-02-26T02:47:26.852Z,0
2023-02-26T02:49:52.893Z,0
2023-02-26T02:52:19.058Z,0
2023-02-26T02:54:44.055Z,0
2023-02-26T02:57:10.121Z,0
2023-02-26T02:59:36.235Z,0
2023-02-26T03:02:02.532Z,0
2023-02-26T03:04:28.662Z,0
2023-02-26T03:06:54.617Z,0
2023-02-26T03:09:20.795Z,0
2023-02-26T03:11:46.715Z,0
2023-02-26T03:16:38.910Z,0
2023-02-26T03:19:05.059Z,0
2023-02-26T03:21:31.096Z,0
2023-02-26T03:23:57.217Z,0
2023-02-26T03:26:22.328Z,0
2023-02-26T03:28:48.400Z,0
2023-02-26T03:31:14.523Z,0
2023-02-26T03:33:40.596Z,0
2023-02-26T03:36:06.691Z,0
2023-02-26T03:38:32.805Z,0
2023-02-26T03:40:58.896Z,0
2023-02-26T03:43:25.015Z,0
2023-02-26T03:45:51.096Z,0
2023-02-26T03:48:17.193Z,0
2023-02-26T03:50:43.285Z,0
2023-02-26T03:53:09.407Z,0
2023-02-26T03:55:35.479Z,0
2023-02-26T03:58:00.598Z,0
2023-02-26T04:00:26.683Z,0
2023-02-26T04:02:52.782Z,0
2023-02-26T04:05:18.891Z,0
2023-02-26T04:07:44.984Z,0
2023-02-26T04:10:11.077Z,0
2023-02-26T04:12:37.175Z,0
2023-02-26T04:15:03.319Z,0
2023-02-26T04:17:29.368Z,0
2023-02-26T04:19:55.471Z,0
2023-02-26T04:22:21.578Z,0
2023-02-26T04:24:47.683Z,0
2023-02-26T04:27:13.753Z,0
2023-02-26T04:29:38.868Z,0
2023-02-26T04:32:04.997Z,0
2023-02-26T04:34:31.061Z,0
2023-02-26T04:36:57.173Z,0
2023-02-26T04:39:23.301Z,0
2023-02-26T04:41:49.353Z,0
2023-02-26T04:44:15.446Z,0
2023-02-26T04:46:41.559Z,0
2023-02-26T04:49:07.643Z,0
2023-02-26T04:51:33.753Z,0
2023-02-26T04:53:59.830Z,0
2023-02-26T04:56:26.152Z,0
2023-02-26T04:58:52.034Z,0
2023-02-26T05:01:17.155Z,0
2023-02-26T05:03:43.252Z,0
2023-02-26T05:06:09.329Z,0
2023-02-26T05:08:35.448Z,0
2023-02-26T05:11:01.558Z,0
2023-02-26T05:13:27.625Z,0
2023-02-26T05:15:53.737Z,0
2023-02-26T05:18:19.818Z,0
2023-02-26T05:20:45.929Z,0
2023-02-26T05:23:12.037Z,0
2023-02-26T05:25:38.130Z,0
2023-02-26T05:28:04.217Z,0
2023-02-26T05:30:30.317Z,0
2023-02-26T05:32:55.464Z,0
2023-02-26T05:35:21.527Z,0
2023-02-26T05:37:47.626Z,0
2023-02-26T05:40:13.725Z,0
2023-02-26T05:42:39.815Z,0
2023-02-26T05:45:05.976Z,4
2023-02-26T05:47:32.015Z,4
2023-02-26T05:49:58.116Z,4
2023-02-26T05:52:24.204Z,8
2023-02-26T05:54:50.304Z,12
2023-02-26T05:57:16.409Z,20
2023-02-26T05:59:42.490Z,28
2023-02-26T06:02:08.603Z,40
2023-02-26T06:04:33.694Z,60
2023-02-26T06:06:59.805Z,80
2023-02-26T06:09:25.903Z,104
2023-02-26T06:11:51.997Z,136
2023-02-26T06:14:17.128Z,168
2023-02-26T06:16:43.223Z,208
2023-02-26T06:19:09.314Z,257
2023-02-26T06:21:35.450Z,305
2023-02-26T06:24:01.519Z,357
2023-02-26T06:26:27.596Z,449
2023-02-26T06:28:53.701Z,437
2023-02-26T06:31:19.809Z,461
2023-02-26T06:33:45.893Z,505
2023-02-26T06:36:12.075Z,606
2023-02-26T06:38:38.097Z,714
2023-02-26T06:41:04.208Z,750
2023-02-26T06:43:30.293Z,859
2023-02-26T06:45:55.468Z,819
2023-02-26T06:48:21.503Z,827
2023-02-26T06:50:47.607Z,855
2023-02-26T06:53:13.706Z,1044
2023-02-26T06:55:39.814Z,1321
2023-02-26T06:58:05.889Z,1156
2023-02-26T07:00:32.002Z,1276
2023-02-26T07:02:58.093Z,1461
2023-02-26T07:05:24.184Z,1521
2023-02-26T07:07:50.298Z,1750
2023-02-26T07:10:16.385Z,2060
2023-02-26T07:12:42.471Z,1678
2023-02-26T07:15:08.577Z,1385
2023-02-26T07:17:33.729Z,1433
2023-02-26T07:19:59.783Z,1377
2023-02-26T07:22:25.871Z,1449
2023-02-26T07:24:51.973Z,1839
2023-02-26T07:27:18.067Z,2096
2023-02-26T07:29:44.164Z,2706
2023-02-26T07:32:10.265Z,2975
2023-02-26T07:34:36.358Z,2903
2023-02-26T07:37:02.458Z,3152
2023-02-26T07:39:28.548Z,3822
2023-02-26T07:41:54.647Z,3931
2023-02-26T07:44:20.748Z,3429
2023-02-26T07:46:46.856Z,2762
2023-02-26T07:49:13.002Z,2369
2023-02-26T07:51:39.055Z,2445
2023-02-26T07:54:05.135Z,2517
2023-02-26T07:56:31.258Z,2642
2023-02-26T07:58:57.330Z,3015
2023-02-26T08:01:23.443Z,3365
2023-02-26T08:03:49.526Z,4260
2023-02-26T08:06:14.645Z,4979
2023-02-26T08:08:40.731Z,4485
2023-02-26T08:11:06.824Z,4561
2023-02-26T08:13:32.915Z,4814
2023-02-26T08:15:59.016Z,3329
2023-02-26T08:18:25.114Z,2630
2023-02-26T08:20:51.221Z,2220
2023-02-26T08:23:17.318Z,2979
2023-02-26T08:25:43.418Z,3272
2023-02-26T08:28:09.522Z,2405
2023-02-26T08:30:35.615Z,3096
2023-02-26T08:33:01.697Z,3931
2023-02-26T08:35:27.810Z,5654
2023-02-26T08:37:52.909Z,5344
2023-02-26T08:40:19.012Z,5035
2023-02-26T08:42:45.189Z,4718
2023-02-26T08:45:11.211Z,5280
2023-02-26T08:47:37.315Z,4738
2023-02-26T08:50:03.394Z,4682
2023-02-26T08:52:29.494Z,4011
2023-02-26T08:54:55.602Z,4854
2023-02-26T08:57:21.733Z,4296
2023-02-26T08:59:47.813Z,4413
2023-02-26T09:02:13.901Z,6015
2023-02-26T09:04:40.016Z,6505
2023-02-26T09:07:06.085Z,6196
2023-02-26T09:09:31.203Z,6409
2023-02-26T09:11:57.289Z,5979
2023-02-26T09:14:23.378Z,6501
2023-02-26T09:16:49.479Z,7489
2023-02-26T09:19:15.591Z,5533
2023-02-26T09:21:41.684Z,6107
2023-02-26T09:24:07.789Z,6409
2023-02-26T09:26:33.906Z,6971
2023-02-26T09:31:26.071Z,6396
2023-02-26T09:33:52.164Z,6971
2023-02-26T09:36:18.263Z,6031
2023-02-26T09:38:44.354Z,6043
2023-02-26T09:41:09.484Z,5188
2023-02-26T09:43:35.583Z,5461
2023-02-26T09:46:01.669Z,5634
2023-02-26T09:48:27.808Z,5577
2023-02-26T09:50:53.859Z,5320
2023-02-26T09:53:19.966Z,6188
2023-02-26T09:55:46.070Z,4557
2023-02-26T09:58:12.166Z,4156
2023-02-26T10:00:38.258Z,4336
2023-02-26T10:03:04.350Z,5280
2023-02-26T10:05:30.455Z,4268
2023-02-26T10:07:56.540Z,5240
2023-02-26T10:10:22.654Z,3678
2023-02-26T10:12:48.770Z,3694
2023-02-26T10:15:13.857Z,4224
2023-02-26T10:17:39.949Z,4614
2023-02-26T10:20:06.192Z,5083
2023-02-26T10:22:32.186Z,4445
2023-02-26T10:24:58.288Z,4995
2023-02-26T10:27:24.357Z,5031
2023-02-26T10:29:50.547Z,4895
2023-02-26T10:32:16.531Z,5224
2023-02-26T10:34:42.647Z,4252
2023-02-26T10:37:08.731Z,4168
2023-02-26T10:39:34.832Z,4927
2023-02-26T10:42:00.941Z,6453
2023-02-26T10:44:27.022Z,5433
2023-02-26T10:46:52.142Z,5256
2023-02-26T10:49:18.231Z,8208
2023-02-26T10:51:44.337Z,7344
2023-02-26T10:54:10.429Z,8023
2023-02-26T10:56:36.526Z,7991
2023-02-26T10:59:02.620Z,9798
2023-02-26T11:01:28.727Z,9175
2023-02-26T11:03:54.828Z,8284
2023-02-26T11:06:20.909Z,7477
2023-02-26T11:08:47.019Z,8119
2023-02-26T11:11:13.117Z,8517
2023-02-26T11:13:39.208Z,9324
2023-02-26T11:16:05.309Z,8722
2023-02-26T11:18:30.445Z,8220
2023-02-26T11:20:56.503Z,7569
2023-02-26T11:23:22.608Z,6790
2023-02-26T11:28:14.798Z,4790
2023-02-26T11:30:41.083Z,5561
2023-02-26T11:33:07.001Z,5975
2023-02-26T11:35:33.114Z,8818
2023-02-26T11:37:59.242Z,7035
2023-02-26T11:40:25.274Z,6119
2023-02-26T11:42:51.383Z,6485
2023-02-26T11:45:17.480Z,5762
2023-02-26T11:47:43.575Z,6055
2023-02-26T11:50:08.688Z,5401
2023-02-26T11:52:34.771Z,6645
2023-02-26T11:55:00.918Z,7240
2023-02-26T11:57:26.981Z,9958
2023-02-26T11:59:53.386Z,8344
2023-02-26T12:02:19.164Z,8477
2023-02-26T12:04:45.298Z,9191
2023-02-26T12:07:11.358Z,7324
2023-02-26T12:09:37.450Z,6083
2023-02-26T12:12:03.557Z,5497
2023-02-26T12:14:29.666Z,5168
2023-02-26T12:16:55.737Z,5248
2023-02-26T12:19:21.897Z,5136
2023-02-26T12:21:46.930Z,4622
2023-02-26T12:24:13.024Z,5176
2023-02-26T12:26:39.129Z,6770
2023-02-26T12:29:05.224Z,7577
2023-02-26T12:31:31.367Z,9882
2023-02-26T12:33:57.432Z,8485
2023-02-26T12:36:23.518Z,8806
2023-02-26T12:38:49.620Z,8774
2023-02-26T12:41:15.724Z,7838
2023-02-26T12:43:41.822Z,8079
2023-02-26T12:46:07.972Z,6139
2023-02-26T12:48:33.998Z,6866
2023-02-26T12:51:00.167Z,5441
2023-02-26T12:53:25.209Z,5878
2023-02-26T12:55:51.354Z,6798
2023-02-26T12:58:17.405Z,5344
2023-02-26T13:00:43.493Z,5818
2023-02-26T13:03:09.596Z,4063
2023-02-26T13:05:35.704Z,3385
2023-02-26T13:08:01.796Z,4051
2023-02-26T13:10:27.881Z,6083
2023-02-26T13:12:53.983Z,5842
2023-02-26T13:15:20.076Z,7244
2023-02-26T13:17:46.161Z,6529
2023-02-26T13:20:12.270Z,6152
2023-02-26T13:22:38.365Z,5951
2023-02-26T13:25:04.456Z,8143
2023-02-26T13:27:30.564Z,8850
2023-02-26T13:29:56.643Z,9541
2023-02-26T13:32:22.744Z,7874
2023-02-26T13:34:47.888Z,9798
2023-02-26T13:37:13.955Z,8107
2023-02-26T13:39:40.046Z,6288
2023-02-26T13:42:06.164Z,4577
2023-02-26T13:44:32.234Z,4284
2023-02-26T13:46:58.332Z,6653
2023-02-26T13:49:24.455Z,6372
2023-02-26T13:51:50.512Z,4561
2023-02-26T13:54:16.615Z,4931
2023-02-26T13:56:42.718Z,6581
2023-02-26T13:59:08.838Z,7107
2023-02-26T14:01:34.918Z,7408
2023-02-26T14:04:00.996Z,7280
2023-02-26T14:06:27.108Z,5810
2023-02-26T14:08:53.206Z,4891
2023-02-26T14:11:19.294Z,5621
2023-02-26T14:13:45.421Z,5007
2023-02-26T14:16:11.480Z,6168
2023-02-26T14:18:37.570Z,8481
2023-02-26T14:21:02.786Z,9593
2023-02-26T14:23:27.827Z,6846
2023-02-26T14:25:53.900Z,7107
2023-02-26T14:28:19.993Z,5951
2023-02-26T14:30:46.089Z,3895
2023-02-26T14:33:12.178Z,4738
2023-02-26T14:35:38.286Z,7493
2023-02-26T14:38:04.386Z,5891
2023-02-26T14:40:30.477Z,5927
2023-02-26T14:42:56.572Z,4754
2023-02-26T14:45:22.668Z,6525
2023-02-26T14:47:48.767Z,6678
2023-02-26T14:50:14.865Z,7465
2023-02-26T14:52:40.960Z,4915
2023-02-26T14:55:06.064Z,5047
2023-02-26T14:57:32.162Z,3353
2023-02-26T14:59:58.271Z,2537
2023-02-26T15:02:24.339Z,2819
2023-02-26T15:04:50.461Z,2381
2023-02-26T15:07:16.547Z,2296
2023-02-26T15:09:42.639Z,2541
2023-02-26T15:12:08.736Z,3361
2023-02-26T15:14:34.835Z,4895
2023-02-26T15:17:00.952Z,5553
2023-02-26T15:19:27.045Z,3654
2023-02-26T15:21:53.152Z,2204
2023-02-26T15:24:19.232Z,2212
2023-02-26T15:26:44.333Z,2337
2023-02-26T15:29:10.443Z,2497
2023-02-26T15:31:36.518Z,2035
2023-02-26T15:34:02.626Z,2035
2023-02-26T15:36:28.709Z,2650
2023-02-26T15:38:54.803Z,2770
2023-02-26T15:41:20.937Z,2549
2023-02-26T15:43:47.001Z,2280
2023-02-26T15:46:13.144Z,2445
2023-02-26T15:48:39.193Z,2754
2023-02-26T15:51:05.284Z,3353
2023-02-26T15:53:31.386Z,2084
2023-02-26T15:55:57.496Z,1457
2023-02-26T15:58:22.588Z,1847
2023-02-26T16:00:48.699Z,1566
2023-02-26T16:03:14.773Z,1542
2023-02-26T16:05:40.893Z,2088
2023-02-26T16:08:06.975Z,1819
2023-02-26T16:10:33.084Z,2088
2023-02-26T16:12:59.166Z,1754
2023-02-26T16:15:25.254Z,1381
2023-02-26T16:17:51.369Z,1369
2023-02-26T16:20:17.457Z,1501
2023-02-26T16:22:43.552Z,1353
2023-02-26T16:25:09.672Z,1240
2023-02-26T16:27:35.745Z,1208
2023-02-26T16:30:00.873Z,951
2023-02-26T16:32:27.011Z,742
2023-02-26T16:34:53.213Z,542
2023-02-26T16:37:19.210Z,489
2023-02-26T16:39:45.269Z,413
2023-02-26T16:42:11.495Z,365
2023-02-26T16:44:37.597Z,369
2023-02-26T16:47:03.630Z,341
2023-02-26T16:49:29.798Z,329
2023-02-26T16:51:55.885Z,309
2023-02-26T16:54:21.993Z,252
2023-02-26T16:56:48.161Z,180
2023-02-26T16:59:14.136Z,140
2023-02-26T17:01:39.248Z,124
2023-02-26T17:04:05.373Z,100
2023-02-26T17:06:31.474Z,72
2023-02-26T17:08:57.585Z,52
2023-02-26T17:11:23.690Z,32
2023-02-26T17:13:49.783Z,20
2023-02-26T17:16:15.864Z,16
2023-02-26T17:18:41.966Z,8
2023-02-26T17:21:07.900Z,4
2023-02-26T17:23:34.124Z,4
2023-02-26T17:26:00.232Z,4
2023-02-26T17:28:26.342Z,4
2023-02-26T17:30:52.316Z,0
2023-02-26T17:33:17.606Z,0
2023-02-26T17:35:43.487Z,0
2023-02-26T17:38:09.768Z,0
2023-02-26T17:40:35.880Z,0
2023-02-26T17:43:02.021Z,0
2023-02-26T17:45:28.005Z,0
2023-02-26T17:47:54.103Z,0
2023-02-26T17:50:20.220Z,0
2023-02-26T17:52:46.356Z,0
2023-02-26T17:55:12.464Z,0
2023-02-26T17:57:38.581Z,0
2023-02-26T18:00:04.715Z,0
2023-02-26T18:04:56.703Z,0
2023-02-26T18:07:21.858Z,0
2023-02-26T18:09:47.889Z,0
2023-02-26T18:12:14.155Z,0
2023-02-26T18:14:40.232Z,0
2023-02-26T18:17:06.344Z,0
2023-02-26T18:19:32.389Z,0
2023-02-26T18:21:58.529Z,0
2023-02-26T18:24:24.624Z,0
2023-02-26T18:26:50.638Z,0
2023-02-26T18:29:16.875Z,0
2023-02-26T18:31:42.913Z,0
2023-02-26T18:34:09.009Z,0
2023-02-26T18:36:35.158Z,0
2023-02-26T18:39:00.089Z,0
2023-02-26T18:41:26.319Z,0
2023-02-26T18:43:52.366Z,0
2023-02-26T18:46:18.363Z,0
2023-02-26T18:48:44.568Z,0
2023-02-26T18:51:10.674Z,0
2023-02-26T18:53:36.744Z,0
2023-02-26T18:56:02.769Z,0
2023-02-26T18:58:28.890Z,0
2023-02-26T19:00:55.105Z,0
2023-02-26T19:03:21.227Z,0
2023-02-26T19:05:47.279Z,0
2023-02-26T19:08:13.350Z,0
2023-02-26T19:10:38.499Z,0
2023-02-26T19:13:04.447Z,0
2023-02-26T19:15:30.724Z,0
2023-02-26T19:17:56.800Z,0
2023-02-26T19:20:22.818Z,0
2023-02-26T19:22:48.840Z,0
2023-02-26T19:25:14.933Z,0
2023-02-26T19:27:41.035Z,0
2023-02-26T19:30:07.299Z,0
2023-02-26T19:32:33.301Z,0
2023-02-26T19:34:59.324Z,0
2023-02-26T19:37:25.634Z,0
2023-02-26T19:39:51.629Z,0
2023-02-26T19:42:16.803Z,0
2023-02-26T19:44:42.844Z,0
2023-02-26T19:47:08.962Z,0
2023-02-26T19:49:34.920Z,0
2023-02-26T19:52:01.217Z,0
2023-02-26T19:54:27.322Z,0
2023-02-26T19:56:53.435Z,0
2023-02-26T19:59:19.494Z,0
2023-02-26T20:01:45.440Z,0
2023-02-26T20:04:11.576Z,0
2023-02-26T20:06:37.795Z,0
2023-02-26T20:09:03.802Z,0
2023-02-26T20:11:29.850Z,0
2023-02-26T20:13:54.913Z,0
2023-02-26T20:16:21.016Z,0
2023-02-26T20:18:47.130Z,0
2023-02-26T20:21:13.358Z,0
2023-02-26T20:23:39.359Z,0
2023-02-26T20:26:05.563Z,0
2023-02-26T20:28:31.592Z,0
2023-02-26T20:30:57.782Z,0
2023-02-26T20:33:23.846Z,0
2023-02-26T20:35:49.937Z,0
2023-02-26T20:38:16.074Z,0
2023-02-26T20:40:42.105Z,0
2023-02-26T20:43:08.069Z,0
2023-02-26T20:45:33.239Z,0
2023-02-26T20:47:59.268Z,0
2023-02-26T20:50:25.501Z,0
2023-02-26T20:52:51.484Z,0
2023-02-26T20:55:17.641Z,0
2023-02-26T20:57:43.801Z,0
2023-02-26T21:00:09.941Z,0
2023-02-26T21:02:35.949Z,0
2023-02-26T21:05:02.043Z,0
2023-02-26T21:07:28.198Z,0
2023-02-26T21:09:54.231Z,0
2023-02-26T21:12:20.260Z,0
2023-02-26T21:14:46.525Z,0
2023-02-26T21:17:11.672Z,0
2023-02-26T21:19:37.675Z,0
2023-02-26T21:22:03.764Z,0
2023-02-26T21:24:29.969Z,0
2023-02-26T21:26:56.032Z,0
2023-02-26T21:29:21.982Z,0
2023-02-26T21:31:48.206Z,0
2023-02-26T21:34:14.279Z,0
2023-02-26T21:36:40.333Z,0
2023-02-26T21:39:06.410Z,0
2023-02-26T21:41:32.559Z,0
2023-02-26T21:43:58.598Z,0
2023-02-26T21:46:24.780Z,0
2023-02-26T21:48:49.731Z,0
2023-02-26T21:51:15.966Z,0
2023-02-26T21:53:42.146Z,0
2023-02-26T21:56:08.182Z,0
2023-02-26T21:58:34.142Z,0
2023-02-26T22:01:00.279Z,0
2023-02-26T22:03:26.384Z,0
2023-02-26T22:05:52.419Z,0
2023-02-26T22:08:18.691Z,0
2023-02-26T22:10:44.784Z,0
2023-02-26T22:13:10.737Z,0
2023-02-26T22:15:36.964Z,0
2023-02-26T22:18:02.989Z,0
2023-02-26T22:20:28.196Z,0
2023-02-26T22:22:54.305Z,0
2023-02-26T22:25:20.386Z,0
2023-02-26T22:27:46.473Z,0
2023-02-26T22:30:12.542Z,0
2023-02-26T22:32:37.718Z,0
2023-02-26T22:35:03.763Z,0
2023-02-26T22:37:29.898Z,0
2023-02-26T22:39:55.812Z,0
2023-02-26T22:42:22.152Z,0
2023-02-26T22:44:48.316Z,0
2023-02-26T22:47:14.264Z,0
2023-02-26T22:49:40.336Z,0
2023-02-26T22:52:06.475Z,0
2023-02-26T22:54:32.425Z,0
2023-02-26T22:56:58.672Z,0
2023-02-26T22:59:24.757Z,0
2023-02-26T23:01:50.790Z,0
2023-02-26T23:04:15.969Z,0
2023-02-26T23:06:42.106Z,0
2023-02-26T23:09:08.186Z,0
2023-02-26T23:11:34.262Z,0
2023-02-26T23:14:00.338Z,0
2023-02-26T23:16:26.297Z,0
2023-02-26T23:18:52.390Z,0
2023-02-26T23:21:18.489Z,0
2023-02-26T23:23:44.599Z,0
2023-02-26T23:26:10.697Z,0
2023-02-26T23:28:36.794Z,0
2023-02-26T23:31:02.888Z,0
2023-02-26T23:33:28.959Z,0
2023-02-26T23:35:54.085Z,0
2023-02-26T23:38:20.182Z,0
2023-02-26T23:40:46.280Z,0
2023-02-26T23:43:12.381Z,0
2023-02-26T23:45:38.466Z,0
2023-02-26T23:48:04.582Z,0
2023-02-26T23:50:30.671Z,0
2023-02-26T23:52:56.775Z,0
2023-02-26T23:55:22.871Z,0
2023-02-26T23:57:48.974Z,0
